sensor_id;sensor_type;location;lat;lon;timestamp;temperature;humidity
44271;DHT22;29963;44.594;11.368;2023-11-22T00:00:55;10.20;99.90
44271;DHT22;29963;44.594;11.368;2023-11-22T00:03:21;10.20;99.90
44271;DHT22;29963;44.594;11.368;2023-11-22T00:05:46;10.20;99.90
44271;DHT22;29963;44.594;11.368;2023-11-22T00:08:13;10.20;99.90
44271;DHT22;29963;44.594;11.368;2023-11-22T00:10:38;10.30;99.90
44271;DHT22;29963;44.594;11.368;2023-11-22T00:13:04;10.20;99.90
44271;DHT22;29963;44.594;11.368;2023-11-22T00:15:30;10.20;99.90
44271;DHT22;29963;44.594;11.368;2023-11-22T00:17:56;10.10;99.90
44271;DHT22;29963;44.594;11.368;2023-11-22T00:20:23;10.10;99.90
44271;DHT22;29963;44.594;11.368;2023-11-22T00:22:49;10.10;99.90
44271;DHT22;29963;44.594;11.368;2023-11-22T00:25:15;10.10;99.90
44271;DHT22;29963;44.594;11.368;2023-11-22T00:27:41;10.00;99.90
44271;DHT22;29963;44.594;11.368;2023-11-22T00:30:07;10.00;99.90
44271;DHT22;29963;44.594;11.368;2023-11-22T00:32:35;10.00;99.90
44271;DHT22;29963;44.594;11.368;2023-11-22T00:35:00;10.00;99.90
44271;DHT22;29963;44.594;11.368;2023-11-22T00:37:26;10.00;99.90
44271;DHT22;29963;44.594;11.368;2023-11-22T00:39:52;10.00;99.90
44271;DHT22;29963;44.594;11.368;2023-11-22T00:42:20;10.00;99.90
44271;DHT22;29963;44.594;11.368;2023-11-22T00:44:46;10.00;99.90
44271;DHT22;29963;44.594;11.368;2023-11-22T00:47:13;10.00;99.90
44271;DHT22;29963;44.594;11.368;2023-11-22T00:49:39;10.00;99.90
44271;DHT22;29963;44.594;11.368;2023-11-22T00:52:05;10.00;99.90
44271;DHT22;29963;44.594;11.368;2023-11-22T00:54:32;10.10;99.90
44271;DHT22;29963;44.594;11.368;2023-11-22T00:56:58;10.00;99.90
44271;DHT22;29963;44.594;11.368;2023-11-22T00:59:23;10.00;99.90
44271;DHT22;29963;44.594;11.368;2023-11-22T01:01:49;10.00;99.90
44271;DHT22;29963;44.594;11.368;2023-11-22T01:04:15;10.00;99.90
44271;DHT22;29963;44.594;11.368;2023-11-22T01:06:40;9.90;99.90
44271;DHT22;29963;44.594;11.368;2023-11-22T01:09:06;10.00;99.90
44271;DHT22;29963;44.594;11.368;2023-11-22T01:11:34;9.90;99.90
44271;DHT22;29963;44.594;11.368;2023-11-22T01:14:00;9.90;99.90
44271;DHT22;29963;44.594;11.368;2023-11-22T01:16:26;9.90;99.90
44271;DHT22;29963;44.594;11.368;2023-11-22T01:18:52;9.90;99.90
44271;DHT22;29963;44.594;11.368;2023-11-22T01:21:21;9.90;99.90
44271;DHT22;29963;44.594;11.368;2023-11-22T01:23:47;9.90;99.90
44271;DHT22;29963;44.594;11.368;2023-11-22T01:26:12;9.90;99.90
44271;DHT22;29963;44.594;11.368;2023-11-22T01:28:38;9.90;99.90
44271;DHT22;29963;44.594;11.368;2023-11-22T01:31:11;10.00;99.90
44271;DHT22;29963;44.594;11.368;2023-11-22T01:33:37;10.00;99.90
44271;DHT22;29963;44.594;11.368;2023-11-22T01:36:02;10.00;99.90
44271;DHT22;29963;44.594;11.368;2023-11-22T01:38:28;10.00;99.90
44271;DHT22;29963;44.594;11.368;2023-11-22T01:40:54;10.00;99.90
44271;DHT22;29963;44.594;11.368;2023-11-22T01:43:20;10.00;99.90
44271;DHT22;29963;44.594;11.368;2023-11-22T01:45:53;10.00;99.90
44271;DHT22;29963;44.594;11.368;2023-11-22T01:48:19;10.10;99.90
44271;DHT22;29963;44.594;11.368;2023-11-22T01:50:46;10.10;99.90
44271;DHT22;29963;44.594;11.368;2023-11-22T01:53:13;10.00;99.90
44271;DHT22;29963;44.594;11.368;2023-11-22T01:55:42;10.00;99.90
44271;DHT22;29963;44.594;11.368;2023-11-22T01:58:09;10.00;99.90
44271;DHT22;29963;44.594;11.368;2023-11-22T02:00:53;9.90;99.90
44271;DHT22;29963;44.594;11.368;2023-11-22T02:03:18;10.00;99.90
44271;DHT22;29963;44.594;11.368;2023-11-22T02:05:45;10.00;99.90
44271;DHT22;29963;44.594;11.368;2023-11-22T02:08:11;10.00;99.90
44271;DHT22;29963;44.594;11.368;2023-11-22T02:10:37;10.00;99.90
44271;DHT22;29963;44.594;11.368;2023-11-22T02:13:04;9.90;99.90
44271;DHT22;29963;44.594;11.368;2023-11-22T02:15:31;10.00;99.90
44271;DHT22;29963;44.594;11.368;2023-11-22T02:17:57;9.90;99.90
44271;DHT22;29963;44.594;11.368;2023-11-22T02:20:23;9.90;99.90
44271;DHT22;29963;44.594;11.368;2023-11-22T02:22:49;9.90;99.90
44271;DHT22;29963;44.594;11.368;2023-11-22T02:25:15;9.90;99.90
44271;DHT22;29963;44.594;11.368;2023-11-22T02:27:41;9.80;99.90
44271;DHT22;29963;44.594;11.368;2023-11-22T02:30:08;9.80;99.90
44271;DHT22;29963;44.594;11.368;2023-11-22T02:32:34;9.80;99.90
44271;DHT22;29963;44.594;11.368;2023-11-22T02:35:00;9.80;99.90
44271;DHT22;29963;44.594;11.368;2023-11-22T02:37:26;9.80;99.90
44271;DHT22;29963;44.594;11.368;2023-11-22T02:40:16;9.80;99.90
44271;DHT22;29963;44.594;11.368;2023-11-22T02:42:51;9.70;99.90
44271;DHT22;29963;44.594;11.368;2023-11-22T02:45:19;9.70;99.90
44271;DHT22;29963;44.594;11.368;2023-11-22T02:47:45;9.70;99.90
44271;DHT22;29963;44.594;11.368;2023-11-22T02:50:12;9.60;99.90
44271;DHT22;29963;44.594;11.368;2023-11-22T02:52:38;9.70;99.90
44271;DHT22;29963;44.594;11.368;2023-11-22T02:55:04;9.70;99.90
44271;DHT22;29963;44.594;11.368;2023-11-22T02:57:31;9.70;99.90
44271;DHT22;29963;44.594;11.368;2023-11-22T02:59:59;9.70;99.90
44271;DHT22;29963;44.594;11.368;2023-11-22T03:02:25;9.70;99.90
44271;DHT22;29963;44.594;11.368;2023-11-22T03:04:51;9.70;99.90
44271;DHT22;29963;44.594;11.368;2023-11-22T03:07:17;9.70;99.90
44271;DHT22;29963;44.594;11.368;2023-11-22T03:09:43;9.80;99.90
44271;DHT22;29963;44.594;11.368;2023-11-22T03:12:11;9.70;99.90
44271;DHT22;29963;44.594;11.368;2023-11-22T03:14:38;9.70;99.90
44271;DHT22;29963;44.594;11.368;2023-11-22T03:17:07;9.70;99.90
44271;DHT22;29963;44.594;11.368;2023-11-22T03:19:33;9.60;99.90
44271;DHT22;29963;44.594;11.368;2023-11-22T03:22:00;9.60;99.90
44271;DHT22;29963;44.594;11.368;2023-11-22T03:24:28;9.50;99.90
44271;DHT22;29963;44.594;11.368;2023-11-22T03:26:55;9.40;99.90
44271;DHT22;29963;44.594;11.368;2023-11-22T03:29:24;9.40;99.90
44271;DHT22;29963;44.594;11.368;2023-11-22T03:31:50;9.40;99.90
44271;DHT22;29963;44.594;11.368;2023-11-22T03:34:18;9.40;99.90
44271;DHT22;29963;44.594;11.368;2023-11-22T03:36:43;9.40;99.90
44271;DHT22;29963;44.594;11.368;2023-11-22T03:39:09;9.40;99.90
44271;DHT22;29963;44.594;11.368;2023-11-22T03:41:36;9.40;99.90
44271;DHT22;29963;44.594;11.368;2023-11-22T03:44:03;9.40;99.90
44271;DHT22;29963;44.594;11.368;2023-11-22T03:46:30;9.30;99.90
44271;DHT22;29963;44.594;11.368;2023-11-22T03:48:56;9.30;99.90
44271;DHT22;29963;44.594;11.368;2023-11-22T03:51:21;9.20;99.90
44271;DHT22;29963;44.594;11.368;2023-11-22T03:53:47;9.20;99.90
44271;DHT22;29963;44.594;11.368;2023-11-22T03:56:13;9.20;99.90
44271;DHT22;29963;44.594;11.368;2023-11-22T03:58:40;9.20;99.90
44271;DHT22;29963;44.594;11.368;2023-11-22T04:01:05;9.10;99.90
44271;DHT22;29963;44.594;11.368;2023-11-22T04:03:31;9.10;99.90
44271;DHT22;29963;44.594;11.368;2023-11-22T04:05:57;9.10;99.90
44271;DHT22;29963;44.594;11.368;2023-11-22T04:08:24;9.00;99.90
44271;DHT22;29963;44.594;11.368;2023-11-22T04:10:50;9.10;99.90
44271;DHT22;29963;44.594;11.368;2023-11-22T04:13:16;9.00;99.90
44271;DHT22;29963;44.594;11.368;2023-11-22T04:15:41;9.10;99.90
44271;DHT22;29963;44.594;11.368;2023-11-22T04:18:07;9.10;99.90
44271;DHT22;29963;44.594;11.368;2023-11-22T04:20:33;9.10;99.90
44271;DHT22;29963;44.594;11.368;2023-11-22T04:22:58;9.10;99.90
44271;DHT22;29963;44.594;11.368;2023-11-22T04:25:24;9.10;99.90
44271;DHT22;29963;44.594;11.368;2023-11-22T04:27:50;9.10;99.90
44271;DHT22;29963;44.594;11.368;2023-11-22T04:30:15;9.10;99.90
44271;DHT22;29963;44.594;11.368;2023-11-22T04:32:43;9.10;99.90
44271;DHT22;29963;44.594;11.368;2023-11-22T04:35:09;9.00;99.90
44271;DHT22;29963;44.594;11.368;2023-11-22T04:37:36;9.00;99.90
44271;DHT22;29963;44.594;11.368;2023-11-22T04:40:03;8.90;99.90
44271;DHT22;29963;44.594;11.368;2023-11-22T04:42:36;8.90;99.90
44271;DHT22;29963;44.594;11.368;2023-11-22T04:45:06;8.90;99.90
44271;DHT22;29963;44.594;11.368;2023-11-22T04:47:32;8.90;99.90
44271;DHT22;29963;44.594;11.368;2023-11-22T04:49:58;8.90;99.90
44271;DHT22;29963;44.594;11.368;2023-11-22T04:52:24;8.80;99.90
44271;DHT22;29963;44.594;11.368;2023-11-22T04:54:50;8.80;99.90
44271;DHT22;29963;44.594;11.368;2023-11-22T04:57:15;8.80;99.90
44271;DHT22;29963;44.594;11.368;2023-11-22T04:59:41;8.80;99.90
44271;DHT22;29963;44.594;11.368;2023-11-22T05:02:08;8.80;99.90
44271;DHT22;29963;44.594;11.368;2023-11-22T05:04:33;8.80;99.90
44271;DHT22;29963;44.594;11.368;2023-11-22T05:06:59;8.80;99.90
44271;DHT22;29963;44.594;11.368;2023-11-22T05:09:28;8.90;99.90
44271;DHT22;29963;44.594;11.368;2023-11-22T05:11:54;9.00;99.90
44271;DHT22;29963;44.594;11.368;2023-11-22T05:14:20;8.90;99.90
44271;DHT22;29963;44.594;11.368;2023-11-22T05:16:45;8.90;99.90
44271;DHT22;29963;44.594;11.368;2023-11-22T05:19:11;9.00;99.90
44271;DHT22;29963;44.594;11.368;2023-11-22T05:21:37;9.00;99.90
44271;DHT22;29963;44.594;11.368;2023-11-22T05:24:02;9.00;99.90
44271;DHT22;29963;44.594;11.368;2023-11-22T05:26:28;8.90;99.90
44271;DHT22;29963;44.594;11.368;2023-11-22T05:28:54;8.80;99.90
44271;DHT22;29963;44.594;11.368;2023-11-22T05:31:20;8.80;99.90
44271;DHT22;29963;44.594;11.368;2023-11-22T05:33:46;8.70;99.90
44271;DHT22;29963;44.594;11.368;2023-11-22T05:36:12;8.60;99.90
44271;DHT22;29963;44.594;11.368;2023-11-22T05:38:38;8.60;99.90
44271;DHT22;29963;44.594;11.368;2023-11-22T05:41:05;8.60;99.90
44271;DHT22;29963;44.594;11.368;2023-11-22T05:43:31;8.60;99.90
44271;DHT22;29963;44.594;11.368;2023-11-22T05:45:57;8.50;99.90
44271;DHT22;29963;44.594;11.368;2023-11-22T05:48:22;8.40;99.90
44271;DHT22;29963;44.594;11.368;2023-11-22T05:50:48;8.40;99.90
44271;DHT22;29963;44.594;11.368;2023-11-22T05:53:14;8.40;99.90
44271;DHT22;29963;44.594;11.368;2023-11-22T05:55:48;8.40;99.90
44271;DHT22;29963;44.594;11.368;2023-11-22T05:58:17;8.40;99.90
44271;DHT22;29963;44.594;11.368;2023-11-22T06:00:44;8.40;99.90
44271;DHT22;29963;44.594;11.368;2023-11-22T06:03:13;8.40;99.90
44271;DHT22;29963;44.594;11.368;2023-11-22T06:05:39;8.40;99.90
44271;DHT22;29963;44.594;11.368;2023-11-22T06:08:06;8.40;99.90
44271;DHT22;29963;44.594;11.368;2023-11-22T06:10:32;8.40;99.90
44271;DHT22;29963;44.594;11.368;2023-11-22T06:12:57;8.40;99.90
44271;DHT22;29963;44.594;11.368;2023-11-22T06:15:26;8.40;99.90
44271;DHT22;29963;44.594;11.368;2023-11-22T06:17:52;8.40;99.90
44271;DHT22;29963;44.594;11.368;2023-11-22T06:20:18;8.40;99.90
44271;DHT22;29963;44.594;11.368;2023-11-22T06:22:44;8.40;99.90
44271;DHT22;29963;44.594;11.368;2023-11-22T06:25:10;8.40;99.90
44271;DHT22;29963;44.594;11.368;2023-11-22T06:27:38;8.40;99.90
44271;DHT22;29963;44.594;11.368;2023-11-22T06:30:05;8.30;99.90
44271;DHT22;29963;44.594;11.368;2023-11-22T06:32:32;8.30;99.90
44271;DHT22;29963;44.594;11.368;2023-11-22T06:34:58;8.30;99.90
44271;DHT22;29963;44.594;11.368;2023-11-22T06:37:24;8.30;99.90
44271;DHT22;29963;44.594;11.368;2023-11-22T06:39:51;8.30;99.90
44271;DHT22;29963;44.594;11.368;2023-11-22T06:42:17;8.30;99.90
44271;DHT22;29963;44.594;11.368;2023-11-22T06:44:45;8.30;99.90
44271;DHT22;29963;44.594;11.368;2023-11-22T06:47:13;8.30;99.90
44271;DHT22;29963;44.594;11.368;2023-11-22T06:49:39;8.20;99.90
44271;DHT22;29963;44.594;11.368;2023-11-22T06:52:05;8.20;99.90
44271;DHT22;29963;44.594;11.368;2023-11-22T06:54:30;8.20;99.90
44271;DHT22;29963;44.594;11.368;2023-11-22T06:56:56;8.30;99.90
44271;DHT22;29963;44.594;11.368;2023-11-22T06:59:22;8.30;99.90
44271;DHT22;29963;44.594;11.368;2023-11-22T07:01:48;8.30;99.90
44271;DHT22;29963;44.594;11.368;2023-11-22T07:04:14;8.40;99.90
44271;DHT22;29963;44.594;11.368;2023-11-22T07:06:40;8.40;99.90
44271;DHT22;29963;44.594;11.368;2023-11-22T07:09:06;8.40;99.90
44271;DHT22;29963;44.594;11.368;2023-11-22T07:11:35;8.40;99.90
44271;DHT22;29963;44.594;11.368;2023-11-22T07:14:02;8.40;99.90
44271;DHT22;29963;44.594;11.368;2023-11-22T07:16:30;8.40;99.90
44271;DHT22;29963;44.594;11.368;2023-11-22T07:18:56;8.40;99.90
44271;DHT22;29963;44.594;11.368;2023-11-22T07:21:22;8.40;99.90
44271;DHT22;29963;44.594;11.368;2023-11-22T07:23:48;8.40;99.90
44271;DHT22;29963;44.594;11.368;2023-11-22T07:26:14;8.50;99.90
44271;DHT22;29963;44.594;11.368;2023-11-22T07:28:40;8.40;99.90
44271;DHT22;29963;44.594;11.368;2023-11-22T07:31:09;8.50;99.90
44271;DHT22;29963;44.594;11.368;2023-11-22T07:33:35;8.50;99.90
44271;DHT22;29963;44.594;11.368;2023-11-22T07:36:01;8.50;99.90
44271;DHT22;29963;44.594;11.368;2023-11-22T07:38:28;8.60;99.90
44271;DHT22;29963;44.594;11.368;2023-11-22T07:40:55;8.60;99.90
44271;DHT22;29963;44.594;11.368;2023-11-22T07:43:22;8.60;99.90
44271;DHT22;29963;44.594;11.368;2023-11-22T07:45:47;8.60;99.90
44271;DHT22;29963;44.594;11.368;2023-11-22T07:48:17;8.70;99.90
44271;DHT22;29963;44.594;11.368;2023-11-22T07:50:43;8.80;99.90
44271;DHT22;29963;44.594;11.368;2023-11-22T07:53:10;8.80;99.90
44271;DHT22;29963;44.594;11.368;2023-11-22T07:55:37;8.80;99.90
44271;DHT22;29963;44.594;11.368;2023-11-22T07:58:03;8.80;99.90
44271;DHT22;29963;44.594;11.368;2023-11-22T08:00:32;8.80;99.90
44271;DHT22;29963;44.594;11.368;2023-11-22T08:03:00;8.80;99.90
44271;DHT22;29963;44.594;11.368;2023-11-22T08:05:31;8.80;99.90
44271;DHT22;29963;44.594;11.368;2023-11-22T08:08:04;8.90;99.90
44271;DHT22;29963;44.594;11.368;2023-11-22T08:10:34;8.90;99.90
44271;DHT22;29963;44.594;11.368;2023-11-22T08:13:00;8.90;99.90
44271;DHT22;29963;44.594;11.368;2023-11-22T08:15:26;8.90;99.90
44271;DHT22;29963;44.594;11.368;2023-11-22T08:17:52;8.90;99.90
44271;DHT22;29963;44.594;11.368;2023-11-22T08:20:18;9.00;99.90
44271;DHT22;29963;44.594;11.368;2023-11-22T08:22:47;9.10;99.90
44271;DHT22;29963;44.594;11.368;2023-11-22T08:25:14;9.10;99.90
44271;DHT22;29963;44.594;11.368;2023-11-22T08:27:41;9.10;99.90
44271;DHT22;29963;44.594;11.368;2023-11-22T08:30:10;9.10;99.90
44271;DHT22;29963;44.594;11.368;2023-11-22T08:32:45;9.10;99.90
44271;DHT22;29963;44.594;11.368;2023-11-22T08:35:16;9.20;99.90
44271;DHT22;29963;44.594;11.368;2023-11-22T08:37:43;9.20;99.90
44271;DHT22;29963;44.594;11.368;2023-11-22T08:40:10;9.20;99.90
44271;DHT22;29963;44.594;11.368;2023-11-22T08:42:40;9.30;99.90
44271;DHT22;29963;44.594;11.368;2023-11-22T08:45:07;9.30;99.90
44271;DHT22;29963;44.594;11.368;2023-11-22T08:47:34;9.30;99.90
44271;DHT22;29963;44.594;11.368;2023-11-22T08:50:00;9.30;99.90
44271;DHT22;29963;44.594;11.368;2023-11-22T08:52:29;9.40;99.90
44271;DHT22;29963;44.594;11.368;2023-11-22T08:54:56;9.40;99.90
44271;DHT22;29963;44.594;11.368;2023-11-22T08:57:22;9.40;99.90
44271;DHT22;29963;44.594;11.368;2023-11-22T08:59:48;9.30;99.90
44271;DHT22;29963;44.594;11.368;2023-11-22T09:02:14;9.30;99.90
44271;DHT22;29963;44.594;11.368;2023-11-22T09:04:41;9.40;99.90
44271;DHT22;29963;44.594;11.368;2023-11-22T09:07:07;9.40;99.90
44271;DHT22;29963;44.594;11.368;2023-11-22T09:09:35;9.50;99.90
44271;DHT22;29963;44.594;11.368;2023-11-22T09:12:01;9.50;99.90
44271;DHT22;29963;44.594;11.368;2023-11-22T09:14:27;9.50;99.90
44271;DHT22;29963;44.594;11.368;2023-11-22T09:16:54;9.60;99.90
44271;DHT22;29963;44.594;11.368;2023-11-22T09:19:21;9.60;99.90
44271;DHT22;29963;44.594;11.368;2023-11-22T09:21:47;9.70;99.90
44271;DHT22;29963;44.594;11.368;2023-11-22T09:24:12;9.70;99.90
44271;DHT22;29963;44.594;11.368;2023-11-22T09:26:38;9.80;99.90
44271;DHT22;29963;44.594;11.368;2023-11-22T09:29:04;9.80;99.90
44271;DHT22;29963;44.594;11.368;2023-11-22T09:31:30;9.80;99.90
44271;DHT22;29963;44.594;11.368;2023-11-22T09:33:56;9.80;99.90
44271;DHT22;29963;44.594;11.368;2023-11-22T09:36:24;9.80;99.90
44271;DHT22;29963;44.594;11.368;2023-11-22T09:38:53;9.80;99.90
44271;DHT22;29963;44.594;11.368;2023-11-22T09:41:18;9.80;99.90
44271;DHT22;29963;44.594;11.368;2023-11-22T09:43:45;9.80;99.90
44271;DHT22;29963;44.594;11.368;2023-11-22T09:46:14;9.90;99.90
44271;DHT22;29963;44.594;11.368;2023-11-22T09:48:42;9.90;99.90
44271;DHT22;29963;44.594;11.368;2023-11-22T09:56:09;9.90;99.90
44271;DHT22;29963;44.594;11.368;2023-11-22T09:58:41;9.90;99.90
44271;DHT22;29963;44.594;11.368;2023-11-22T10:01:13;9.90;99.90
44271;DHT22;29963;44.594;11.368;2023-11-22T10:03:39;9.90;99.90
44271;DHT22;29963;44.594;11.368;2023-11-22T10:06:05;10.00;99.90
44271;DHT22;29963;44.594;11.368;2023-11-22T10:08:33;10.00;99.90
44271;DHT22;29963;44.594;11.368;2023-11-22T10:13:52;10.10;99.90
44271;DHT22;29963;44.594;11.368;2023-11-22T10:16:18;10.10;99.90
44271;DHT22;29963;44.594;11.368;2023-11-22T10:18:46;10.10;99.90
44271;DHT22;29963;44.594;11.368;2023-11-22T10:21:28;10.10;99.90
44271;DHT22;29963;44.594;11.368;2023-11-22T10:23:57;10.20;99.90
44271;DHT22;29963;44.594;11.368;2023-11-22T10:26:26;10.20;99.90
44271;DHT22;29963;44.594;11.368;2023-11-22T10:28:54;10.30;99.90
44271;DHT22;29963;44.594;11.368;2023-11-22T10:31:20;10.30;99.90
44271;DHT22;29963;44.594;11.368;2023-11-22T10:33:47;10.40;99.90
44271;DHT22;29963;44.594;11.368;2023-11-22T10:36:14;10.50;99.90
44271;DHT22;29963;44.594;11.368;2023-11-22T10:38:41;10.60;99.90
44271;DHT22;29963;44.594;11.368;2023-11-22T10:41:11;10.70;99.90
44271;DHT22;29963;44.594;11.368;2023-11-22T10:43:39;10.70;99.90
44271;DHT22;29963;44.594;11.368;2023-11-22T10:46:07;10.80;99.90
44271;DHT22;29963;44.594;11.368;2023-11-22T10:48:37;10.90;99.90
44271;DHT22;29963;44.594;11.368;2023-11-22T10:51:15;10.90;99.90
44271;DHT22;29963;44.594;11.368;2023-11-22T10:53:49;11.00;99.90
44271;DHT22;29963;44.594;11.368;2023-11-22T10:56:17;11.00;99.90
44271;DHT22;29963;44.594;11.368;2023-11-22T10:58:51;11.00;99.90
44271;DHT22;29963;44.594;11.368;2023-11-22T11:01:19;11.00;99.90
44271;DHT22;29963;44.594;11.368;2023-11-22T11:04:03;11.20;99.90
44271;DHT22;29963;44.594;11.368;2023-11-22T11:06:34;11.30;99.90
44271;DHT22;29963;44.594;11.368;2023-11-22T11:09:04;11.40;99.90
44271;DHT22;29963;44.594;11.368;2023-11-22T11:11:37;11.50;99.90
44271;DHT22;29963;44.594;11.368;2023-11-22T11:14:05;11.50;99.90
44271;DHT22;29963;44.594;11.368;2023-11-22T11:16:35;11.60;99.90
44271;DHT22;29963;44.594;11.368;2023-11-22T11:19:14;11.60;99.90
44271;DHT22;29963;44.594;11.368;2023-11-22T11:21:40;11.60;99.90
44271;DHT22;29963;44.594;11.368;2023-11-22T11:24:06;11.70;99.90
44271;DHT22;29963;44.594;11.368;2023-11-22T11:26:33;11.70;99.90
44271;DHT22;29963;44.594;11.368;2023-11-22T11:29:02;11.80;99.90
44271;DHT22;29963;44.594;11.368;2023-11-22T11:31:34;11.80;99.90
44271;DHT22;29963;44.594;11.368;2023-11-22T11:34:07;11.90;99.90
44271;DHT22;29963;44.594;11.368;2023-11-22T11:36:33;12.00;99.90
44271;DHT22;29963;44.594;11.368;2023-11-22T11:39:07;12.10;99.90
44271;DHT22;29963;44.594;11.368;2023-11-22T11:41:41;12.20;99.90
44271;DHT22;29963;44.594;11.368;2023-11-22T11:44:08;12.30;99.90
44271;DHT22;29963;44.594;11.368;2023-11-22T11:46:38;12.40;99.90
44271;DHT22;29963;44.594;11.368;2023-11-22T11:49:06;12.50;99.90
44271;DHT22;29963;44.594;11.368;2023-11-22T11:51:35;12.60;99.90
44271;DHT22;29963;44.594;11.368;2023-11-22T11:54:03;12.60;99.90
44271;DHT22;29963;44.594;11.368;2023-11-22T11:56:29;12.60;99.90
44271;DHT22;29963;44.594;11.368;2023-11-22T11:58:58;12.60;99.90
44271;DHT22;29963;44.594;11.368;2023-11-22T12:01:27;12.60;99.90
44271;DHT22;29963;44.594;11.368;2023-11-22T12:03:55;12.60;99.90
44271;DHT22;29963;44.594;11.368;2023-11-22T12:06:21;12.60;99.90
44271;DHT22;29963;44.594;11.368;2023-11-22T12:08:46;12.70;99.90
44271;DHT22;29963;44.594;11.368;2023-11-22T12:11:16;12.70;99.90
44271;DHT22;29963;44.594;11.368;2023-11-22T12:13:43;12.70;99.90
44271;DHT22;29963;44.594;11.368;2023-11-22T12:16:14;12.80;99.90
44271;DHT22;29963;44.594;11.368;2023-11-22T12:21:08;12.80;99.90
44271;DHT22;29963;44.594;11.368;2023-11-22T12:23:38;12.80;99.90
44271;DHT22;29963;44.594;11.368;2023-11-22T12:26:10;12.80;99.90
44271;DHT22;29963;44.594;11.368;2023-11-22T12:28:44;12.90;99.90
44271;DHT22;29963;44.594;11.368;2023-11-22T12:31:12;12.90;99.90
44271;DHT22;29963;44.594;11.368;2023-11-22T12:33:40;13.00;99.90
44271;DHT22;29963;44.594;11.368;2023-11-22T12:36:07;13.10;99.90
44271;DHT22;29963;44.594;11.368;2023-11-22T12:38:38;13.20;99.90
44271;DHT22;29963;44.594;11.368;2023-11-22T12:41:06;13.40;99.90
44271;DHT22;29963;44.594;11.368;2023-11-22T12:43:35;13.50;99.90
44271;DHT22;29963;44.594;11.368;2023-11-22T12:46:03;13.60;99.90
44271;DHT22;29963;44.594;11.368;2023-11-22T12:48:29;13.70;99.90
44271;DHT22;29963;44.594;11.368;2023-11-22T12:50:56;13.80;99.90
44271;DHT22;29963;44.594;11.368;2023-11-22T12:53:23;14.00;99.90
44271;DHT22;29963;44.594;11.368;2023-11-22T12:55:52;14.10;99.90
44271;DHT22;29963;44.594;11.368;2023-11-22T12:58:22;14.30;99.90
44271;DHT22;29963;44.594;11.368;2023-11-22T13:00:50;14.50;99.90
44271;DHT22;29963;44.594;11.368;2023-11-22T13:03:16;14.50;99.90
44271;DHT22;29963;44.594;11.368;2023-11-22T13:05:45;14.80;99.90
44271;DHT22;29963;44.594;11.368;2023-11-22T13:08:13;14.90;99.90
44271;DHT22;29963;44.594;11.368;2023-11-22T13:10:43;15.10;99.90
44271;DHT22;29963;44.594;11.368;2023-11-22T13:13:08;15.20;99.90
44271;DHT22;29963;44.594;11.368;2023-11-22T13:15:35;15.20;99.90
44271;DHT22;29963;44.594;11.368;2023-11-22T13:18:01;15.20;99.90
44271;DHT22;29963;44.594;11.368;2023-11-22T13:20:27;15.20;99.90
44271;DHT22;29963;44.594;11.368;2023-11-22T13:22:54;15.20;99.90
44271;DHT22;29963;44.594;11.368;2023-11-22T13:25:23;15.20;99.90
44271;DHT22;29963;44.594;11.368;2023-11-22T13:27:50;15.30;99.90
44271;DHT22;29963;44.594;11.368;2023-11-22T13:30:17;15.40;99.90
44271;DHT22;29963;44.594;11.368;2023-11-22T13:32:45;15.60;99.90
44271;DHT22;29963;44.594;11.368;2023-11-22T13:35:11;15.90;99.90
44271;DHT22;29963;44.594;11.368;2023-11-22T13:37:47;16.20;99.90
44271;DHT22;29963;44.594;11.368;2023-11-22T13:40:18;16.50;99.90
44271;DHT22;29963;44.594;11.368;2023-11-22T13:42:52;17.00;99.90
44271;DHT22;29963;44.594;11.368;2023-11-22T13:45:19;18.40;99.90
44271;DHT22;29963;44.594;11.368;2023-11-22T13:47:53;20.10;99.90
44271;DHT22;29963;44.594;11.368;2023-11-22T13:50:26;21.80;99.90
44271;DHT22;29963;44.594;11.368;2023-11-22T13:52:53;23.30;99.90
44271;DHT22;29963;44.594;11.368;2023-11-22T13:55:19;23.90;98.10
44271;DHT22;29963;44.594;11.368;2023-11-22T13:57:58;23.30;98.30
44271;DHT22;29963;44.594;11.368;2023-11-22T14:00:26;23.50;98.40
44271;DHT22;29963;44.594;11.368;2023-11-22T14:02:57;24.40;97.00
44271;DHT22;29963;44.594;11.368;2023-11-22T14:05:23;25.20;94.90
44271;DHT22;29963;44.594;11.368;2023-11-22T14:07:49;25.50;93.50
44271;DHT22;29963;44.594;11.368;2023-11-22T14:10:17;26.00;92.60
44271;DHT22;29963;44.594;11.368;2023-11-22T14:12:43;26.30;91.30
44271;DHT22;29963;44.594;11.368;2023-11-22T14:15:11;26.50;90.40
44271;DHT22;29963;44.594;11.368;2023-11-22T14:17:36;26.70;89.90
44271;DHT22;29963;44.594;11.368;2023-11-22T14:20:10;26.60;87.10
44271;DHT22;29963;44.594;11.368;2023-11-22T14:22:36;26.60;87.90
44271;DHT22;29963;44.594;11.368;2023-11-22T14:25:03;26.60;87.00
44271;DHT22;29963;44.594;11.368;2023-11-22T14:27:32;26.40;86.60
44271;DHT22;29963;44.594;11.368;2023-11-22T14:29:59;26.10;86.60
44271;DHT22;29963;44.594;11.368;2023-11-22T14:32:25;25.90;86.80
44271;DHT22;29963;44.594;11.368;2023-11-22T14:34:51;25.40;86.80
44271;DHT22;29963;44.594;11.368;2023-11-22T14:37:19;25.10;87.80
44271;DHT22;29963;44.594;11.368;2023-11-22T14:39:45;24.80;88.10
44271;DHT22;29963;44.594;11.368;2023-11-22T14:42:10;24.70;88.50
44271;DHT22;29963;44.594;11.368;2023-11-22T14:44:37;24.40;89.00
44271;DHT22;29963;44.594;11.368;2023-11-22T14:47:03;24.10;89.90
44271;DHT22;29963;44.594;11.368;2023-11-22T14:49:34;23.80;90.20
44271;DHT22;29963;44.594;11.368;2023-11-22T14:52:00;23.40;90.60
44271;DHT22;29963;44.594;11.368;2023-11-22T14:54:27;22.90;91.10
44271;DHT22;29963;44.594;11.368;2023-11-22T14:56:53;22.10;91.80
44271;DHT22;29963;44.594;11.368;2023-11-22T14:59:21;21.40;93.50
44271;DHT22;29963;44.594;11.368;2023-11-22T15:01:47;21.00;94.40
44271;DHT22;29963;44.594;11.368;2023-11-22T15:04:13;20.70;95.30
44271;DHT22;29963;44.594;11.368;2023-11-22T15:06:41;20.40;96.70
44271;DHT22;29963;44.594;11.368;2023-11-22T15:09:09;19.80;97.10
44271;DHT22;29963;44.594;11.368;2023-11-22T15:11:37;19.20;98.30
44271;DHT22;29963;44.594;11.368;2023-11-22T15:14:06;18.60;99.70
44271;DHT22;29963;44.594;11.368;2023-11-22T15:16:33;18.10;99.90
44271;DHT22;29963;44.594;11.368;2023-11-22T15:18:59;17.60;99.90
44271;DHT22;29963;44.594;11.368;2023-11-22T15:21:27;17.20;99.90
44271;DHT22;29963;44.594;11.368;2023-11-22T15:23:53;16.90;99.90
44271;DHT22;29963;44.594;11.368;2023-11-22T15:26:23;16.60;99.90
44271;DHT22;29963;44.594;11.368;2023-11-22T15:28:49;16.40;99.90
44271;DHT22;29963;44.594;11.368;2023-11-22T15:31:19;16.20;99.90
44271;DHT22;29963;44.594;11.368;2023-11-22T15:33:48;16.00;99.90
44271;DHT22;29963;44.594;11.368;2023-11-22T15:36:14;15.90;99.90